Time;durP1;ratioP1;P1;durP2;ratioP2;P2;SDS_P1;SDS_P2;PMS_P1;PMS_P2;Temp;Humidity;BMP_temperature;BMP_pressure;BME280_temperature;BME280_humidity;BME280_pressure;Samples;Min_cycle;Max_cycle;Signal;HPM_P1;HPM_P2
2023/11/11 00:02:05;;;;;;;18.67;14.05;;;9.70;99.90;;;;;;5019445;28;20014;-75
2023/11/11 00:04:31;;;;;;;18.80;14.55;;;9.80;99.90;;;;;;5018490;28;20091;-76
2023/11/11 00:06:57;;;;;;;24.70;14.27;;;9.70;99.90;;;;;;5020383;28;20033;-74
2023/11/11 00:09:22;;;;;;;18.95;13.60;;;9.70;99.90;;;;;;5020310;28;20029;-74
2023/11/11 00:11:49;;;;;;;24.30;13.55;;;9.80;99.90;;;;;;5024131;28;20043;-75
2023/11/11 00:14:15;;;;;;;22.15;12.90;;;9.80;99.90;;;;;;5019370;28;20021;-73
2023/11/11 00:16:41;;;;;;;23.05;12.40;;;9.90;99.90;;;;;;5016679;28;20470;-74
2023/11/11 00:19:07;;;;;;;20.13;12.32;;;9.80;99.90;;;;;;5021388;28;20044;-75
2023/11/11 00:21:38;;;;;;;20.05;12.70;;;9.80;99.90;;;;;;5021534;28;20029;-76
2023/11/11 00:24:09;;;;;;;18.73;11.02;;;9.80;99.90;;;;;;5015005;28;20055;-73
2023/11/11 00:26:35;;;;;;;18.75;10.57;;;9.90;99.90;;;;;;5020536;28;20064;-74
2023/11/11 00:29:02;;;;;;;22.00;11.00;;;9.80;99.90;;;;;;5023364;28;20033;-73
2023/11/11 00:31:30;;;;;;;23.80;13.95;;;9.80;99.90;;;;;;5018288;28;20071;-75
2023/11/11 00:33:55;;;;;;;18.52;13.05;;;9.80;99.90;;;;;;5018643;28;20430;-74
2023/11/11 00:36:21;;;;;;;18.45;12.55;;;9.80;99.90;;;;;;5027757;28;20132;-77
2023/11/11 00:38:47;;;;;;;20.38;12.60;;;9.70;99.90;;;;;;5015696;28;20077;-75
2023/11/11 00:41:14;;;;;;;22.50;12.55;;;9.80;99.90;;;;;;5022950;28;20030;-74
2023/11/11 00:43:39;;;;;;;18.77;13.35;;;9.70;99.90;;;;;;5027773;28;20018;-74
2023/11/11 00:46:05;;;;;;;18.42;10.57;;;9.80;99.90;;;;;;5030446;28;20028;-75
2023/11/11 00:48:31;;;;;;;17.42;9.35;;;9.80;99.90;;;;;;5021885;28;20057;-72
2023/11/11 00:50:58;;;;;;;14.85;10.73;;;9.70;99.90;;;;;;5020303;28;20038;-74
2023/11/11 00:53:24;;;;;;;13.85;10.45;;;9.80;99.90;;;;;;5022959;28;20026;-74
2023/11/11 00:55:50;;;;;;;16.00;9.88;;;9.70;99.90;;;;;;5026469;28;20093;-74
2023/11/11 00:58:16;;;;;;;15.90;10.10;;;9.70;99.90;;;;;;5024482;28;20061;-74
2023/11/11 01:00:43;;;;;;;15.10;9.07;;;9.60;99.90;;;;;;5023458;28;20033;-74
2023/11/11 01:03:09;;;;;;;16.75;9.07;;;9.60;99.90;;;;;;5020237;28;20026;-71
2023/11/11 01:05:35;;;;;;;16.08;7.60;;;9.60;99.90;;;;;;5022303;28;20377;-72
2023/11/11 01:08:01;;;;;;;15.45;9.05;;;9.60;99.90;;;;;;5021566;28;20467;-74
2023/11/11 01:10:27;;;;;;;15.15;7.90;;;9.60;99.90;;;;;;5022567;28;20022;-74
2023/11/11 01:12:54;;;;;;;13.75;8.30;;;9.60;99.90;;;;;;5021141;28;20041;-75
2023/11/11 01:15:20;;;;;;;13.15;7.63;;;9.60;99.90;;;;;;5021341;28;20025;-73
2023/11/11 01:17:46;;;;;;;12.70;6.78;;;9.50;99.90;;;;;;5023535;27;20402;-74
2023/11/11 01:20:12;;;;;;;11.02;6.75;;;9.50;99.90;;;;;;5018617;28;20021;-75
2023/11/11 01:22:39;;;;;;;12.05;6.63;;;9.50;99.90;;;;;;5023121;28;20026;-75
2023/11/11 01:25:07;;;;;;;10.88;5.72;;;9.50;99.90;;;;;;5025397;28;20086;-75
2023/11/11 01:27:33;;;;;;;13.02;5.53;;;9.50;99.90;;;;;;5023593;28;20109;-75
2023/11/11 01:29:59;;;;;;;10.65;6.50;;;9.50;99.90;;;;;;5025132;28;20063;-74
2023/11/11 01:32:25;;;;;;;13.57;7.20;;;9.50;99.90;;;;;;5018787;28;20448;-74
2023/11/11 01:34:52;;;;;;;19.50;7.93;;;9.50;99.90;;;;;;5022790;28;20104;-72
2023/11/11 01:37:18;;;;;;;13.77;8.05;;;9.50;99.90;;;;;;5019034;28;20033;-71
2023/11/11 01:39:44;;;;;;;24.98;9.82;;;9.50;99.90;;;;;;5019681;28;20072;-72
2023/11/11 01:42:10;;;;;;;16.00;7.07;;;9.40;99.90;;;;;;5025210;28;20021;-74
2023/11/11 01:44:35;;;;;;;16.67;6.82;;;9.50;99.90;;;;;;5018496;28;20056;-75
2023/11/11 01:47:06;;;;;;;11.93;5.30;;;9.50;99.90;;;;;;5024602;28;20105;-75
2023/11/11 01:49:33;;;;;;;8.25;5.40;;;9.50;99.90;;;;;;5018170;27;20033;-74
2023/11/11 01:51:59;;;;;;;9.93;5.40;;;9.50;99.90;;;;;;5020153;28;20049;-75
2023/11/11 01:54:25;;;;;;;13.43;4.03;;;9.40;99.90;;;;;;5027408;27;20022;-75
2023/11/11 01:56:51;;;;;;;9.68;3.85;;;9.40;99.90;;;;;;5019698;28;20043;-74
2023/11/11 01:59:18;;;;;;;9.35;3.60;;;9.40;99.90;;;;;;5020065;28;20079;-74
2023/11/11 02:01:49;;;;;;;8.95;3.05;;;9.40;99.90;;;;;;5019052;28;20082;-75
2023/11/11 02:04:15;;;;;;;6.65;2.85;;;9.40;99.90;;;;;;5024890;28;20024;-74
2023/11/11 02:06:42;;;;;;;8.57;3.28;;;9.30;99.90;;;;;;5019388;28;20018;-75
2023/11/11 02:09:08;;;;;;;8.95;3.15;;;9.40;99.90;;;;;;5022980;28;20058;-73
2023/11/11 02:11:35;;;;;;;8.32;2.88;;;9.30;99.90;;;;;;5021117;27;20061;-73
2023/11/11 02:14:01;;;;;;;6.75;2.85;;;9.30;99.90;;;;;;5029914;28;20453;-75
2023/11/11 02:16:28;;;;;;;8.90;2.40;;;9.20;99.90;;;;;;5020291;28;20498;-74
2023/11/11 02:18:54;;;;;;;8.57;2.42;;;9.20;99.90;;;;;;5022271;28;20029;-74
2023/11/11 02:21:20;;;;;;;12.20;2.42;;;9.20;99.90;;;;;;5025301;28;20552;-74
2023/11/11 02:23:48;;;;;;;8.48;2.53;;;9.40;99.90;;;;;;5018476;28;20119;-74
2023/11/11 02:26:14;;;;;;;6.80;2.17;;;9.30;99.90;;;;;;5022091;28;20045;-75
2023/11/11 02:28:40;;;;;;;6.47;2.30;;;9.30;99.90;;;;;;5016183;28;20477;-74
2023/11/11 02:31:08;;;;;;;4.32;2.20;;;9.40;99.90;;;;;;5019598;28;20026;-73
2023/11/11 02:33:33;;;;;;;10.07;2.60;;;9.40;99.90;;;;;;5020388;28;20029;-73
2023/11/11 02:35:59;;;;;;;8.63;2.30;;;9.40;99.90;;;;;;5020620;28;20026;-74
2023/11/11 02:38:24;;;;;;;9.77;2.53;;;9.40;99.90;;;;;;5022773;28;20582;-73
2023/11/11 02:40:50;;;;;;;8.77;2.50;;;9.40;99.90;;;;;;5023882;28;20033;-73
2023/11/11 02:43:16;;;;;;;7.45;2.25;;;9.40;99.90;;;;;;5027165;28;20032;-73
2023/11/11 02:45:41;;;;;;;5.35;1.95;;;9.40;99.90;;;;;;5024801;28;20041;-75
2023/11/11 02:48:07;;;;;;;2.78;1.40;;;9.30;99.90;;;;;;5017763;28;20022;-73
2023/11/11 02:50:33;;;;;;;5.90;1.65;;;9.40;99.90;;;;;;5022935;28;20100;-73
2023/11/11 02:52:59;;;;;;;4.47;1.52;;;9.40;99.90;;;;;;5020972;28;20033;-74
2023/11/11 02:55:24;;;;;;;7.60;1.10;;;9.40;99.90;;;;;;5025895;28;20063;-74
2023/11/11 02:57:50;;;;;;;3.28;1.30;;;9.40;99.90;;;;;;5018951;28;20138;-73
2023/11/11 03:00:16;;;;;;;4.28;1.25;;;9.50;99.90;;;;;;5016081;28;20018;-73
2023/11/11 03:02:42;;;;;;;7.30;1.52;;;9.40;99.90;;;;;;5023678;28;20501;-74
2023/11/11 03:05:09;;;;;;;8.00;3.08;;;9.50;99.90;;;;;;5025146;28;20045;-74
2023/11/11 03:07:36;;;;;;;12.80;4.75;;;9.60;99.90;;;;;;5025180;28;20754;-74
2023/11/11 03:10:05;;;;;;;22.17;8.48;;;9.60;99.90;;;;;;5017736;28;20101;-72
2023/11/11 03:12:34;;;;;;;21.08;8.73;;;9.60;99.90;;;;;;5018732;28;20470;-73
2023/11/11 03:15:00;;;;;;;24.73;7.82;;;9.60;99.90;;;;;;5021734;28;20513;-74
2023/11/11 03:17:29;;;;;;;16.15;5.47;;;9.60;99.90;;;;;;5028152;28;20130;-74
2023/11/11 03:19:56;;;;;;;10.82;4.13;;;9.60;99.90;;;;;;5021571;28;20025;-73
2023/11/11 03:22:22;;;;;;;7.40;2.75;;;9.60;99.90;;;;;;5026449;28;20021;-73
2023/11/11 03:24:48;;;;;;;7.90;2.60;;;9.60;99.90;;;;;;5020593;28;20026;-74
2023/11/11 03:27:13;;;;;;;6.50;1.63;;;9.60;99.90;;;;;;5017921;28;20018;-71
2023/11/11 03:29:39;;;;;;;14.65;1.80;;;9.60;99.90;;;;;;5016842;28;20022;-71
2023/11/11 03:32:05;;;;;;;4.93;1.90;;;9.60;99.90;;;;;;5015509;28;20026;-74
2023/11/11 03:34:31;;;;;;;10.68;2.22;;;9.60;99.90;;;;;;5026815;28;20031;-74
2023/11/11 03:36:56;;;;;;;12.23;2.17;;;9.60;99.90;;;;;;5026189;28;20469;-74
2023/11/11 03:39:23;;;;;;;11.10;2.58;;;9.60;99.90;;;;;;5023883;28;20018;-74
2023/11/11 03:41:48;;;;;;;7.90;2.53;;;9.60;99.90;;;;;;5014004;28;20029;-73
2023/11/11 03:44:14;;;;;;;10.18;2.88;;;9.70;99.90;;;;;;5014991;28;20489;-74
2023/11/11 03:46:39;;;;;;;10.48;3.58;;;9.60;99.90;;;;;;5019542;28;20025;-74
2023/11/11 03:49:05;;;;;;;10.50;3.58;;;9.60;99.90;;;;;;5024267;28;20065;-74
2023/11/11 03:51:31;;;;;;;8.35;3.55;;;9.60;99.90;;;;;;5015824;27;20017;-72
2023/11/11 03:53:57;;;;;;;12.05;3.42;;;9.60;99.90;;;;;;5021294;28;20038;-72
2023/11/11 03:56:24;;;;;;;12.80;3.53;;;9.60;99.90;;;;;;5026205;27;20038;-75
2023/11/11 03:58:50;;;;;;;11.35;3.95;;;9.60;99.90;;;;;;5016958;28;20049;-76
2023/11/11 04:01:16;;;;;;;10.52;4.25;;;9.60;99.90;;;;;;5019862;28;20049;-75
2023/11/11 04:03:43;;;;;;;9.43;4.28;;;9.60;99.90;;;;;;5022208;28;20097;-74
2023/11/11 04:06:10;;;;;;;18.55;4.70;;;9.50;99.90;;;;;;5019066;28;20040;-75
2023/11/11 04:08:36;;;;;;;12.80;5.28;;;9.60;99.90;;;;;;5022036;28;20541;-75
2023/11/11 04:11:06;;;;;;;10.40;4.85;;;9.50;99.90;;;;;;5015478;28;20125;-74
2023/11/11 04:13:39;;;;;;;10.98;5.88;;;9.50;99.90;;;;;;5019841;28;20041;-75
2023/11/11 04:16:13;;;;;;;11.88;5.28;;;9.40;99.90;;;;;;5021132;28;20029;-74
2023/11/11 04:18:39;;;;;;;18.60;6.18;;;9.30;99.90;;;;;;5023076;28;20057;-74
2023/11/11 04:21:05;;;;;;;12.32;5.60;;;9.30;99.90;;;;;;5022116;28;20050;-75
2023/11/11 04:23:30;;;;;;;10.88;5.47;;;9.40;99.90;;;;;;5014819;28;20021;-74
2023/11/11 04:25:57;;;;;;;10.60;5.78;;;9.30;99.90;;;;;;5020314;28;20068;-74
2023/11/11 04:28:27;;;;;;;13.25;5.15;;;9.30;99.90;;;;;;5023918;28;20378;-75
2023/11/11 04:30:52;;;;;;;13.65;5.90;;;9.20;99.90;;;;;;5016709;28;20072;-74
2023/11/11 04:33:22;;;;;;;15.75;6.88;;;9.20;99.90;;;;;;5020945;28;20057;-74
2023/11/11 04:35:51;;;;;;;20.17;7.13;;;9.20;99.90;;;;;;5022345;28;20079;-74
2023/11/11 04:38:17;;;;;;;15.07;7.05;;;9.10;99.90;;;;;;5018643;28;20064;-74
2023/11/11 04:40:44;;;;;;;14.52;6.10;;;9.10;99.90;;;;;;5021128;28;20048;-72
2023/11/11 04:43:10;;;;;;;16.60;7.35;;;9.10;99.90;;;;;;5020601;28;20026;-72
2023/11/11 04:45:36;;;;;;;13.15;7.80;;;9.10;99.90;;;;;;5025519;28;20039;-76
2023/11/11 04:48:02;;;;;;;17.80;6.88;;;9.00;99.90;;;;;;5018160;28;20117;-75
2023/11/11 04:50:28;;;;;;;15.98;7.35;;;9.10;99.90;;;;;;5019585;28;20097;-76
2023/11/11 04:52:54;;;;;;;16.27;7.50;;;9.00;99.90;;;;;;5023986;28;20021;-74
2023/11/11 04:55:19;;;;;;;12.25;6.53;;;9.00;99.90;;;;;;5018521;28;20052;-74
2023/11/11 04:57:45;;;;;;;16.73;7.00;;;8.90;99.90;;;;;;5020841;28;20479;-74
2023/11/11 05:00:13;;;;;;;16.65;7.10;;;8.90;99.90;;;;;;5014515;28;20034;-75
2023/11/11 05:02:39;;;;;;;19.60;7.80;;;8.80;99.90;;;;;;5021938;28;20019;-72
2023/11/11 05:05:10;;;;;;;13.55;7.13;;;8.90;99.90;;;;;;5009943;28;20049;-72
2023/11/11 05:07:39;;;;;;;14.63;6.85;;;8.90;99.90;;;;;;5010797;28;20640;-72
2023/11/11 05:10:17;;;;;;;15.48;7.78;;;8.90;99.90;;;;;;5020367;28;20474;-74
2023/11/11 05:12:43;;;;;;;15.85;7.75;;;9.00;99.90;;;;;;5025607;28;20382;-75
2023/11/11 05:15:15;;;;;;;18.13;7.68;;;8.90;99.90;;;;;;5025394;28;20033;-75
2023/11/11 05:17:45;;;;;;;20.60;7.40;;;8.90;99.90;;;;;;5029545;28;20081;-75
2023/11/11 05:20:11;;;;;;;16.35;7.63;;;8.90;99.90;;;;;;5026599;28;20021;-73
2023/11/11 05:22:37;;;;;;;13.27;6.43;;;8.90;99.90;;;;;;5022528;27;20029;-77
2023/11/11 05:25:04;;;;;;;17.23;7.55;;;8.90;99.90;;;;;;5033616;28;20095;-75
2023/11/11 05:27:30;;;;;;;15.98;7.50;;;8.80;99.90;;;;;;5033151;27;20026;-75
2023/11/11 05:29:57;;;;;;;24.40;7.88;;;8.80;99.90;;;;;;5029318;27;20112;-74
2023/11/11 05:32:22;;;;;;;15.10;7.35;;;8.70;99.90;;;;;;5023143;28;20101;-76
2023/11/11 05:34:48;;;;;;;14.82;7.90;;;8.70;99.90;;;;;;5021657;28;20449;-75
2023/11/11 05:37:14;;;;;;;20.13;9.02;;;8.70;99.90;;;;;;5025987;27;20424;-74
2023/11/11 05:39:44;;;;;;;19.92;8.23;;;8.70;99.90;;;;;;5032021;27;20485;-74
2023/11/11 05:42:13;;;;;;;15.48;7.55;;;8.70;99.90;;;;;;5026761;27;20040;-75
2023/11/11 05:44:42;;;;;;;13.93;7.20;;;8.60;99.90;;;;;;5026753;27;20394;-75
2023/11/11 05:47:08;;;;;;;23.00;7.93;;;8.60;99.90;;;;;;5026490;27;20032;-75
2023/11/11 05:49:34;;;;;;;18.88;9.10;;;8.50;99.90;;;;;;5030100;28;20021;-74
2023/11/11 05:52:05;;;;;;;16.38;9.25;;;8.50;99.90;;;;;;5031466;27;20034;-74
2023/11/11 05:54:31;;;;;;;14.32;9.07;;;8.50;99.90;;;;;;5025917;28;20630;-76
2023/11/11 05:56:57;;;;;;;18.30;9.85;;;8.50;99.90;;;;;;5031387;27;20049;-75
2023/11/11 05:59:23;;;;;;;19.27;9.00;;;8.50;99.90;;;;;;5030217;27;20092;-74
2023/11/11 06:01:48;;;;;;;22.98;9.20;;;8.50;99.90;;;;;;5032737;27;20100;-75
2023/11/11 06:04:14;;;;;;;21.92;10.35;;;8.50;99.90;;;;;;5028622;27;20089;-74
2023/11/11 06:06:43;;;;;;;20.33;10.70;;;8.40;99.90;;;;;;5027401;27;20026;-75
2023/11/11 06:09:24;;;;;;;20.38;10.90;;;8.40;99.90;;;;;;5027398;27;20091;-74
2023/11/11 06:11:50;;;;;;;19.90;10.55;;;8.30;99.90;;;;;;5030574;27;20101;-72
2023/11/11 06:14:16;;;;;;;20.88;11.40;;;8.40;99.90;;;;;;5026230;27;20486;-76
2023/11/11 06:16:45;;;;;;;19.98;11.40;;;8.40;99.90;;;;;;5027107;27;20512;-74
2023/11/11 06:19:12;;;;;;;21.42;11.48;;;8.40;99.90;;;;;;5032022;27;20029;-75
2023/11/11 06:21:38;;;;;;;26.33;11.85;;;8.50;99.90;;;;;;5033358;27;20032;-74
2023/11/11 06:24:04;;;;;;;26.45;12.35;;;8.50;99.90;;;;;;5029157;27;20031;-72
2023/11/11 06:26:30;;;;;;;24.52;12.07;;;8.50;99.90;;;;;;5022843;28;20542;-71
2023/11/11 06:28:57;;;;;;;27.15;13.25;;;8.50;99.90;;;;;;5024988;27;20021;-72
2023/11/11 06:31:23;;;;;;;28.50;14.57;;;8.50;99.90;;;;;;5022584;27;20473;-75
2023/11/11 06:33:52;;;;;;;21.98;13.68;;;8.40;99.90;;;;;;5027270;27;20022;-75
2023/11/11 06:36:18;;;;;;;28.02;15.05;;;8.50;99.90;;;;;;5026526;27;20044;-74
2023/11/11 06:38:44;;;;;;;25.42;14.35;;;8.50;99.90;;;;;;5027873;27;20017;-74
2023/11/11 06:41:10;;;;;;;32.20;15.68;;;8.40;99.90;;;;;;5031545;27;20104;-74
2023/11/11 06:43:36;;;;;;;31.70;15.32;;;8.40;99.90;;;;;;5022599;27;20442;-75
2023/11/11 06:46:03;;;;;;;27.80;15.07;;;8.40;99.90;;;;;;5025566;28;20414;-74
2023/11/11 06:48:28;;;;;;;32.53;14.10;;;8.40;99.90;;;;;;5030279;27;20056;-74
2023/11/11 06:50:54;;;;;;;27.20;15.60;;;8.50;99.90;;;;;;5022789;28;20019;-74
2023/11/11 06:53:20;;;;;;;29.85;15.02;;;8.50;99.90;;;;;;5023899;27;20029;-72
2023/11/11 06:55:48;;;;;;;32.30;17.90;;;8.50;99.90;;;;;;5026703;27;20038;-75
2023/11/11 06:58:16;;;;;;;33.13;16.40;;;8.40;99.90;;;;;;5026139;27;20040;-74
2023/11/11 07:00:42;;;;;;;32.03;16.65;;;8.50;99.90;;;;;;5019067;27;20433;-74
2023/11/11 07:03:08;;;;;;;31.50;14.98;;;8.50;99.90;;;;;;5029027;27;20025;-74
2023/11/11 07:05:37;;;;;;;34.88;16.50;;;8.40;99.90;;;;;;5024685;28;20126;-75
2023/11/11 07:08:05;;;;;;;31.80;17.25;;;8.40;99.90;;;;;;5025682;27;20497;-76
2023/11/11 07:10:33;;;;;;;34.30;18.02;;;8.40;99.90;;;;;;5025539;27;20032;-74
2023/11/11 07:13:00;;;;;;;29.90;16.25;;;8.40;99.90;;;;;;5019790;27;20477;-74
2023/11/11 07:15:27;;;;;;;32.72;17.50;;;8.40;99.90;;;;;;5024240;28;20082;-73
2023/11/11 07:17:53;;;;;;;34.83;17.08;;;8.30;99.90;;;;;;5019926;28;20094;-76
2023/11/11 07:20:21;;;;;;;38.45;17.08;;;8.30;99.90;;;;;;5028942;27;20024;-74
2023/11/11 07:22:51;;;;;;;35.03;16.30;;;8.30;99.90;;;;;;5027485;27;22544;-74
2023/11/11 07:25:19;;;;;;;31.35;16.27;;;8.30;99.90;;;;;;5025529;28;20054;-73
2023/11/11 07:27:45;;;;;;;25.70;15.48;;;8.40;99.90;;;;;;5021309;27;20028;-76
2023/11/11 07:30:12;;;;;;;32.22;16.17;;;8.40;99.90;;;;;;5021531;28;20025;-73
2023/11/11 07:32:39;;;;;;;29.92;15.05;;;8.30;99.90;;;;;;5023142;28;20489;-76
2023/11/11 07:35:07;;;;;;;28.48;15.63;;;8.20;99.90;;;;;;5019956;28;20013;-73
2023/11/11 07:37:32;;;;;;;29.90;15.50;;;8.20;99.90;;;;;;5019675;28;20117;-76
2023/11/11 07:39:59;;;;;;;25.05;14.85;;;8.30;99.90;;;;;;5029886;27;20737;-73
2023/11/11 07:42:25;;;;;;;30.17;14.52;;;8.30;99.90;;;;;;5026440;27;20090;-74
2023/11/11 07:44:52;;;;;;;32.50;16.30;;;8.30;99.90;;;;;;5026624;28;20059;-73
2023/11/11 07:47:18;;;;;;;32.10;15.50;;;8.30;99.90;;;;;;5022350;28;20026;-76
2023/11/11 07:49:43;;;;;;;30.00;15.48;;;8.20;99.90;;;;;;5020388;27;20040;-75
2023/11/11 07:52:09;;;;;;;30.70;14.48;;;8.30;99.90;;;;;;5025390;28;20484;-73
2023/11/11 07:54:35;;;;;;;36.30;16.80;;;8.30;99.90;;;;;;5021108;28;20021;-74
2023/11/11 07:57:03;;;;;;;29.35;15.68;;;8.30;99.90;;;;;;5025968;28;20040;-74
2023/11/11 07:59:29;;;;;;;33.33;15.60;;;8.30;99.90;;;;;;5018812;28;20163;-74
2023/11/11 08:01:59;;;;;;;27.85;14.73;;;8.30;99.90;;;;;;5023483;28;20032;-75
2023/11/11 08:04:26;;;;;;;34.15;16.33;;;8.20;99.90;;;;;;5022262;28;20445;-75
2023/11/11 08:06:51;;;;;;;30.48;15.70;;;8.30;99.90;;;;;;5025213;28;20082;-75
2023/11/11 08:09:17;;;;;;;32.60;16.02;;;8.40;99.90;;;;;;5024347;28;20107;-74
2023/11/11 08:11:44;;;;;;;27.95;14.68;;;8.30;99.90;;;;;;5033792;28;20033;-74
2023/11/11 08:14:13;;;;;;;25.30;15.00;;;8.30;99.90;;;;;;5025391;27;20500;-74
2023/11/11 08:16:39;;;;;;;30.15;14.88;;;8.30;99.90;;;;;;5020474;27;20062;-73
2023/11/11 08:19:05;;;;;;;30.10;15.30;;;8.30;99.90;;;;;;5024138;28;20627;-74
2023/11/11 08:21:32;;;;;;;28.58;14.70;;;8.30;99.90;;;;;;5022278;28;20455;-74
2023/11/11 08:24:05;;;;;;;25.63;14.27;;;8.30;99.90;;;;;;5021419;28;20894;-73
2023/11/11 08:26:31;;;;;;;31.90;14.68;;;8.30;99.90;;;;;;5016060;28;20398;-73
2023/11/11 08:28:58;;;;;;;30.38;15.18;;;8.40;99.90;;;;;;5025545;28;20029;-73
2023/11/11 08:31:24;;;;;;;28.02;13.63;;;8.30;99.90;;;;;;5023375;28;20076;-74
2023/11/11 08:33:50;;;;;;;29.08;14.50;;;8.40;99.90;;;;;;5025535;28;20022;-73
2023/11/11 08:36:17;;;;;;;24.63;12.75;;;8.40;99.90;;;;;;5019068;28;20189;-74
2023/11/11 08:38:43;;;;;;;25.55;13.05;;;8.50;99.90;;;;;;5023064;28;20053;-74
2023/11/11 08:41:09;;;;;;;26.23;13.30;;;8.40;99.90;;;;;;5022178;28;20493;-74
2023/11/11 08:43:35;;;;;;;25.42;12.43;;;8.50;99.90;;;;;;5016898;28;20401;-70
2023/11/11 08:46:01;;;;;;;24.15;12.45;;;8.50;99.90;;;;;;5020370;28;20025;-69
2023/11/11 08:48:30;;;;;;;21.38;12.38;;;8.60;99.90;;;;;;5021712;28;20060;-72
2023/11/11 08:50:56;;;;;;;24.73;12.57;;;8.60;99.90;;;;;;5025654;28;20077;-71
2023/11/11 08:53:21;;;;;;;26.83;12.60;;;8.60;99.90;;;;;;5021268;28;20022;-71
2023/11/11 08:55:48;;;;;;;30.42;13.65;;;8.70;99.90;;;;;;5017224;28;20044;-72
2023/11/11 08:58:14;;;;;;;27.50;13.25;;;8.80;99.90;;;;;;5025428;27;20021;-70
2023/11/11 09:00:40;;;;;;;25.00;13.07;;;8.80;99.90;;;;;;5023041;28;20010;-70
2023/11/11 09:03:06;;;;;;;30.40;13.73;;;8.90;99.90;;;;;;5025043;28;20108;-71
2023/11/11 09:05:35;;;;;;;26.23;13.00;;;8.90;99.90;;;;;;5030634;27;20124;-71
2023/11/11 09:08:01;;;;;;;27.70;12.13;;;8.90;99.90;;;;;;5026531;27;20019;-70
2023/11/11 09:10:27;;;;;;;26.02;13.10;;;9.00;99.90;;;;;;5030094;27;20037;-71
2023/11/11 09:12:53;;;;;;;24.15;11.88;;;9.10;99.90;;;;;;5031036;27;20017;-71
2023/11/11 09:15:20;;;;;;;22.58;11.65;;;9.10;99.90;;;;;;5021341;28;20048;-73
2023/11/11 09:17:45;;;;;;;23.83;10.23;;;9.20;99.90;;;;;;5030305;27;20371;-72
2023/11/11 09:20:11;;;;;;;19.25;9.38;;;9.30;99.90;;;;;;5018289;27;20541;-73
2023/11/11 09:22:37;;;;;;;19.67;11.27;;;9.30;99.90;;;;;;5028319;28;20034;-72
2023/11/11 09:25:05;;;;;;;23.20;10.05;;;9.40;99.90;;;;;;5020590;28;20057;-72
2023/11/11 09:27:31;;;;;;;20.58;9.50;;;9.40;99.90;;;;;;5026450;27;20113;-71
2023/11/11 09:29:58;;;;;;;15.50;8.05;;;9.50;99.90;;;;;;5024449;27;20026;-71
2023/11/11 09:32:24;;;;;;;20.77;8.90;;;9.60;99.90;;;;;;5022972;27;20507;-70
2023/11/11 09:34:49;;;;;;;19.90;9.55;;;9.70;99.90;;;;;;5028998;27;20049;-70
2023/11/11 09:37:15;;;;;;;15.13;9.30;;;9.80;99.90;;;;;;5023979;27;20469;-72
2023/11/11 09:39:41;;;;;;;19.08;8.50;;;9.80;99.90;;;;;;5022168;27;20255;-72
2023/11/11 09:42:07;;;;;;;14.23;8.05;;;9.90;99.90;;;;;;5024086;27;20030;-72
2023/11/11 09:44:33;;;;;;;16.08;8.27;;;10.00;99.90;;;;;;5025947;27;20100;-70
2023/11/11 09:47:00;;;;;;;23.50;8.35;;;10.00;99.90;;;;;;5022488;27;20025;-70
2023/11/11 09:49:30;;;;;;;15.38;8.15;;;10.10;99.90;;;;;;5022625;28;20112;-71
2023/11/11 09:51:57;;;;;;;19.88;9.85;;;10.10;99.90;;;;;;5033933;27;20053;-71
2023/11/11 09:54:23;;;;;;;18.95;8.50;;;10.10;99.90;;;;;;5030158;27;20075;-71
2023/11/11 09:56:50;;;;;;;15.93;9.00;;;10.20;99.90;;;;;;5021850;28;20041;-71
2023/11/11 09:59:19;;;;;;;17.95;8.95;;;10.20;99.90;;;;;;5021464;27;20465;-71
2023/11/11 10:01:45;;;;;;;17.42;8.70;;;10.30;99.90;;;;;;5019766;28;20101;-71
2023/11/11 10:04:11;;;;;;;15.52;7.82;;;10.30;99.90;;;;;;5022022;27;20525;-71
2023/11/11 10:06:37;;;;;;;18.00;8.60;;;10.50;99.90;;;;;;5027385;28;20466;-72
2023/11/11 10:09:04;;;;;;;17.08;8.45;;;10.50;99.90;;;;;;5025557;27;20117;-71
2023/11/11 10:11:31;;;;;;;16.60;8.77;;;10.50;99.90;;;;;;5028971;27;20071;-71
2023/11/11 10:13:57;;;;;;;18.95;8.27;;;10.60;99.90;;;;;;5019641;28;20018;-70
2023/11/11 10:16:25;;;;;;;16.70;7.68;;;10.60;99.90;;;;;;5025904;28;20036;-72
2023/11/11 10:18:58;;;;;;;14.23;7.70;;;10.70;99.90;;;;;;5020808;28;20040;-72
2023/11/11 10:21:24;;;;;;;14.38;7.20;;;10.70;99.90;;;;;;5026938;27;20410;-71
2023/11/11 10:23:52;;;;;;;17.13;7.57;;;10.60;99.90;;;;;;5025911;27;20029;-71
2023/11/11 10:26:20;;;;;;;10.77;6.30;;;10.50;99.90;;;;;;5030467;28;20581;-71
2023/11/11 10:28:50;;;;;;;12.18;5.68;;;10.60;99.90;;;;;;5024852;27;20022;-72
2023/11/11 10:31:21;;;;;;;12.38;6.15;;;10.50;99.90;;;;;;5027093;27;20018;-72
2023/11/11 10:33:47;;;;;;;8.75;5.13;;;10.50;99.90;;;;;;5021276;27;20034;-71
2023/11/11 10:36:14;;;;;;;11.00;4.85;;;10.50;99.90;;;;;;5027020;27;20087;-70
2023/11/11 10:38:41;;;;;;;11.57;6.13;;;10.50;99.90;;;;;;5020174;28;20078;-71
2023/11/11 10:41:07;;;;;;;11.50;5.15;;;10.50;99.90;;;;;;5027402;27;20025;-71
2023/11/11 10:43:34;;;;;;;12.93;5.50;;;10.50;99.90;;;;;;5019873;27;20024;-73
2023/11/11 10:46:00;;;;;;;16.63;6.07;;;10.50;99.90;;;;;;5029415;27;20031;-71
2023/11/11 10:48:26;;;;;;;11.27;5.45;;;10.60;99.90;;;;;;5028270;27;20037;-72
2023/11/11 10:50:53;;;;;;;12.48;5.75;;;10.60;99.90;;;;;;5017443;28;20494;-77
2023/11/11 10:53:21;;;;;;;12.52;4.55;;;10.60;99.90;;;;;;5022425;28;20634;-70
2023/11/11 10:55:52;;;;;;;9.70;4.78;;;10.70;99.90;;;;;;5020990;27;20044;-70
2023/11/11 10:58:18;;;;;;;9.55;4.45;;;10.70;99.90;;;;;;5024693;28;20030;-71
2023/11/11 11:00:48;;;;;;;14.98;4.70;;;10.60;99.90;;;;;;5027346;27;20040;-72
2023/11/11 11:03:17;;;;;;;9.80;4.38;;;10.60;99.90;;;;;;5019190;28;20029;-71
2023/11/11 11:05:56;;;;;;;10.15;3.95;;;10.70;99.90;;;;;;5024731;27;20030;-71
2023/11/11 11:08:26;;;;;;;8.25;3.95;;;10.60;99.90;;;;;;5027307;28;20020;-71
2023/11/11 11:11:33;;;;;;;8.20;4.25;;;10.60;99.90;;;;;;5025956;28;20104;-71
2023/11/11 11:14:30;;;;;;;8.50;4.60;;;10.60;99.90;;;;;;5020152;28;20026;-72
2023/11/11 11:16:58;;;;;;;10.40;4.20;;;10.70;99.90;;;;;;5019628;27;20127;-71
2023/11/11 11:19:24;;;;;;;10.45;5.63;;;10.70;99.90;;;;;;5025234;27;20032;-71
2023/11/11 11:21:51;;;;;;;10.27;4.72;;;10.80;99.90;;;;;;5020685;27;20094;-72
2023/11/11 11:24:17;;;;;;;11.13;4.70;;;10.80;99.90;;;;;;5026678;27;20480;-72
2023/11/11 11:26:42;;;;;;;10.10;4.32;;;10.80;99.90;;;;;;5023408;28;20033;-75
2023/11/11 11:29:19;;;;;;;8.13;4.85;;;10.90;99.90;;;;;;5026058;28;20036;-73
2023/11/11 11:32:04;;;;;;;8.57;4.32;;;10.80;99.90;;;;;;5025387;27;20036;-72
2023/11/11 11:34:30;;;;;;;8.95;4.03;;;10.80;99.90;;;;;;5025970;27;20059;-77
2023/11/11 11:36:56;;;;;;;11.70;4.80;;;10.80;99.90;;;;;;5018057;28;20029;-72
2023/11/11 11:39:27;;;;;;;12.15;4.78;;;10.80;99.90;;;;;;5025958;27;20022;-72
2023/11/11 11:42:14;;;;;;;12.00;4.95;;;10.70;99.90;;;;;;5021575;27;20049;-72
2023/11/11 11:44:40;;;;;;;11.95;5.20;;;10.70;99.90;;;;;;5022104;28;20053;-72
2023/11/11 11:47:06;;;;;;;7.63;4.88;;;10.80;99.90;;;;;;5021939;28;20053;-76
2023/11/11 11:49:34;;;;;;;7.65;4.35;;;10.80;99.90;;;;;;5025136;28;20033;-72
2023/11/11 11:52:00;;;;;;;10.02;4.65;;;10.80;99.90;;;;;;5031490;28;20102;-74
2023/11/11 11:54:26;;;;;;;11.07;4.30;;;10.80;99.90;;;;;;5026678;27;20082;-71
2023/11/11 11:56:53;;;;;;;16.23;4.38;;;10.80;99.90;;;;;;5024512;27;20041;-77
2023/11/11 11:59:18;;;;;;;7.43;5.18;;;10.90;99.90;;;;;;5026569;28;20879;-71
2023/11/11 12:01:45;;;;;;;10.45;5.00;;;11.10;99.90;;;;;;5023757;28;20117;-72
2023/11/11 12:04:12;;;;;;;9.57;4.82;;;11.00;99.90;;;;;;5026885;28;20079;-71
2023/11/11 12:06:38;;;;;;;6.45;4.28;;;11.00;99.90;;;;;;5022245;28;20486;-74
2023/11/11 12:09:07;;;;;;;12.45;4.63;;;11.10;99.90;;;;;;5022558;28;20159;-75
2023/11/11 12:11:38;;;;;;;10.13;4.07;;;11.10;99.90;;;;;;5026534;28;20022;-71
2023/11/11 12:14:09;;;;;;;9.00;3.95;;;11.10;99.90;;;;;;5030639;28;20026;-72
2023/11/11 12:16:39;;;;;;;5.80;3.17;;;11.10;99.90;;;;;;5017995;28;20042;-74
2023/11/11 12:19:13;;;;;;;9.52;3.42;;;11.20;99.90;;;;;;5028408;28;20116;-73
2023/11/11 12:21:44;;;;;;;7.32;3.50;;;11.10;99.90;;;;;;5024905;28;20037;-72
2023/11/11 12:24:11;;;;;;;6.43;3.10;;;11.10;99.90;;;;;;5027980;27;20045;-71
2023/11/11 12:26:41;;;;;;;8.15;3.03;;;11.20;99.90;;;;;;5026069;28;22525;-73
2023/11/11 12:29:08;;;;;;;7.65;3.67;;;11.20;99.90;;;;;;5018143;28;20542;-73
2023/11/11 12:31:55;;;;;;;9.43;3.78;;;11.20;99.90;;;;;;5021624;28;20041;-73
2023/11/11 12:34:28;;;;;;;6.13;3.03;;;11.10;99.90;;;;;;5027014;27;20538;-71
2023/11/11 12:36:54;;;;;;;7.85;2.95;;;11.20;99.90;;;;;;5017458;28;20086;-72
2023/11/11 12:39:26;;;;;;;5.60;2.58;;;11.20;99.90;;;;;;5021389;28;20037;-71
2023/11/11 12:41:53;;;;;;;7.45;2.92;;;11.20;99.90;;;;;;5016082;28;20100;-72
2023/11/11 12:44:21;;;;;;;5.00;3.28;;;11.20;99.90;;;;;;5022552;28;20044;-71